sensor_id;sensor_type;location;lat;lon;timestamp;temperature;humidity
67555;HTU21D;54385;53.516;49.456;2023-06-26T00:00:05;20.94;43.50
67555;HTU21D;54385;53.516;49.456;2023-06-26T00:02:31;20.92;43.50
67555;HTU21D;54385;53.516;49.456;2023-06-26T00:04:59;20.93;43.51
67555;HTU21D;54385;53.516;49.456;2023-06-26T00:07:29;20.93;43.52
67555;HTU21D;54385;53.516;49.456;2023-06-26T00:09:57;20.92;43.52
67555;HTU21D;54385;53.516;49.456;2023-06-26T00:12:24;20.92;43.51
67555;HTU21D;54385;53.516;49.456;2023-06-26T00:14:51;20.92;43.51
67555;HTU21D;54385;53.516;49.456;2023-06-26T00:17:18;20.91;43.51
67555;HTU21D;54385;53.516;49.456;2023-06-26T00:19:45;20.92;43.49
67555;HTU21D;54385;53.516;49.456;2023-06-26T00:22:11;20.91;43.51
67555;HTU21D;54385;53.516;49.456;2023-06-26T00:24:38;20.91;43.48
67555;HTU21D;54385;53.516;49.456;2023-06-26T00:27:05;20.92;43.47
67555;HTU21D;54385;53.516;49.456;2023-06-26T00:29:31;20.91;43.46
67555;HTU21D;54385;53.516;49.456;2023-06-26T00:31:58;20.92;43.44
67555;HTU21D;54385;53.516;49.456;2023-06-26T00:34:24;20.92;43.43
67555;HTU21D;54385;53.516;49.456;2023-06-26T00:36:51;20.92;43.40
67555;HTU21D;54385;53.516;49.456;2023-06-26T00:39:17;20.94;43.36
67555;HTU21D;54385;53.516;49.456;2023-06-26T00:41:44;20.96;43.32
67555;HTU21D;54385;53.516;49.456;2023-06-26T00:44:10;20.96;43.31
67555;HTU21D;54385;53.516;49.456;2023-06-26T00:46:37;20.98;43.26
67555;HTU21D;54385;53.516;49.456;2023-06-26T00:49:04;21.00;43.21
67555;HTU21D;54385;53.516;49.456;2023-06-26T00:51:31;21.02;43.16
67555;HTU21D;54385;53.516;49.456;2023-06-26T00:53:58;21.05;43.10
67555;HTU21D;54385;53.516;49.456;2023-06-26T00:56:24;21.06;43.06
67555;HTU21D;54385;53.516;49.456;2023-06-26T00:58:51;21.07;43.01
67555;HTU21D;54385;53.516;49.456;2023-06-26T01:01:17;21.08;42.95
67555;HTU21D;54385;53.516;49.456;2023-06-26T01:03:51;21.11;42.90
67555;HTU21D;54385;53.516;49.456;2023-06-26T01:06:20;21.14;42.86
67555;HTU21D;54385;53.516;49.456;2023-06-26T01:08:47;21.15;42.77
67555;HTU21D;54385;53.516;49.456;2023-06-26T01:11:14;21.18;42.72
67555;HTU21D;54385;53.516;49.456;2023-06-26T01:13:42;21.20;42.64
67555;HTU21D;54385;53.516;49.456;2023-06-26T01:16:12;21.22;42.60
67555;HTU21D;54385;53.516;49.456;2023-06-26T01:18:40;21.24;42.57
67555;HTU21D;54385;53.516;49.456;2023-06-26T01:21:09;21.27;42.47
67555;HTU21D;54385;53.516;49.456;2023-06-26T01:26:19;21.32;42.36
67555;HTU21D;54385;53.516;49.456;2023-06-26T01:28:47;21.35;42.32
67555;HTU21D;54385;53.516;49.456;2023-06-26T01:31:15;21.35;42.26
67555;HTU21D;54385;53.516;49.456;2023-06-26T01:33:42;21.39;42.18
67555;HTU21D;54385;53.516;49.456;2023-06-26T01:36:10;21.40;42.13
67555;HTU21D;54385;53.516;49.456;2023-06-26T01:38:37;21.45;42.06
67555;HTU21D;54385;53.516;49.456;2023-06-26T01:41:04;21.47;42.00
67555;HTU21D;54385;53.516;49.456;2023-06-26T01:46:31;21.53;41.87
67555;HTU21D;54385;53.516;49.456;2023-06-26T01:52:12;21.59;41.72
67555;HTU21D;54385;53.516;49.456;2023-06-26T01:57:36;21.65;41.56
67555;HTU21D;54385;53.516;49.456;2023-06-26T02:00:03;21.67;41.49
67555;HTU21D;54385;53.516;49.456;2023-06-26T02:02:30;21.70;41.41
67555;HTU21D;54385;53.516;49.456;2023-06-26T02:04:57;21.73;41.36
67555;HTU21D;54385;53.516;49.456;2023-06-26T02:07:23;21.77;41.26
67555;HTU21D;54385;53.516;49.456;2023-06-26T02:09:50;21.78;41.21
67555;HTU21D;54385;53.516;49.456;2023-06-26T02:12:17;21.81;41.13
67555;HTU21D;54385;53.516;49.456;2023-06-26T02:14:43;21.85;41.07
67555;HTU21D;54385;53.516;49.456;2023-06-26T02:17:10;21.89;41.00
67555;HTU21D;54385;53.516;49.456;2023-06-26T02:19:37;21.93;40.92
67555;HTU21D;54385;53.516;49.456;2023-06-26T02:22:11;21.94;40.84
67555;HTU21D;54385;53.516;49.456;2023-06-26T02:24:40;21.99;40.79
67555;HTU21D;54385;53.516;49.456;2023-06-26T02:27:07;22.02;40.75
67555;HTU21D;54385;53.516;49.456;2023-06-26T02:29:33;22.05;40.70
67555;HTU21D;54385;53.516;49.456;2023-06-26T02:32:00;22.07;40.63
67555;HTU21D;54385;53.516;49.456;2023-06-26T02:34:27;22.09;40.57
67555;HTU21D;54385;53.516;49.456;2023-06-26T02:36:53;22.13;40.50
67555;HTU21D;54385;53.516;49.456;2023-06-26T02:39:24;22.17;40.46
67555;HTU21D;54385;53.516;49.456;2023-06-26T02:41:51;22.19;40.38
67555;HTU21D;54385;53.516;49.456;2023-06-26T02:44:17;22.22;40.32
67555;HTU21D;54385;53.516;49.456;2023-06-26T02:46:44;22.24;40.33
67555;HTU21D;54385;53.516;49.456;2023-06-26T02:49:11;22.27;40.27
67555;HTU21D;54385;53.516;49.456;2023-06-26T02:51:37;22.32;40.17
67555;HTU21D;54385;53.516;49.456;2023-06-26T02:54:07;22.34;40.13
67555;HTU21D;54385;53.516;49.456;2023-06-26T02:56:36;22.37;40.07
67555;HTU21D;54385;53.516;49.456;2023-06-26T02:59:04;22.39;40.07
67555;HTU21D;54385;53.516;49.456;2023-06-26T03:01:31;22.42;40.00
67555;HTU21D;54385;53.516;49.456;2023-06-26T03:03:57;22.46;39.94
67555;HTU21D;54385;53.516;49.456;2023-06-26T03:06:27;22.51;39.86
67555;HTU21D;54385;53.516;49.456;2023-06-26T03:08:54;22.50;39.81
67555;HTU21D;54385;53.516;49.456;2023-06-26T03:11:29;22.54;39.75
67555;HTU21D;54385;53.516;49.456;2023-06-26T03:13:57;22.56;39.76
67555;HTU21D;54385;53.516;49.456;2023-06-26T03:16:24;22.61;40.52
67555;HTU21D;54385;53.516;49.456;2023-06-26T03:18:55;22.66;42.03
67555;HTU21D;54385;53.516;49.456;2023-06-26T03:21:22;22.70;42.03
67555;HTU21D;54385;53.516;49.456;2023-06-26T03:23:50;22.72;42.17
67555;HTU21D;54385;53.516;49.456;2023-06-26T03:26:17;22.77;42.46
67555;HTU21D;54385;53.516;49.456;2023-06-26T03:28:49;22.82;43.03
67555;HTU21D;54385;53.516;49.456;2023-06-26T03:31:21;22.84;43.58
67555;HTU21D;54385;53.516;49.456;2023-06-26T03:34:01;22.90;45.04
67555;HTU21D;54385;53.516;49.456;2023-06-26T03:36:35;22.93;45.07
67555;HTU21D;54385;53.516;49.456;2023-06-26T03:39:06;23.00;45.06
67555;HTU21D;54385;53.516;49.456;2023-06-26T03:41:35;23.05;45.34
67555;HTU21D;54385;53.516;49.456;2023-06-26T03:44:02;23.08;45.37
67555;HTU21D;54385;53.516;49.456;2023-06-26T03:46:32;23.13;45.51
67555;HTU21D;54385;53.516;49.456;2023-06-26T03:49:02;23.17;46.03
67555;HTU21D;54385;53.516;49.456;2023-06-26T03:51:34;23.17;45.90
67555;HTU21D;54385;53.516;49.456;2023-06-26T03:54:02;23.18;45.62
67555;HTU21D;54385;53.516;49.456;2023-06-26T03:56:29;23.23;45.43
67555;HTU21D;54385;53.516;49.456;2023-06-26T03:58:56;23.23;45.28
67555;HTU21D;54385;53.516;49.456;2023-06-26T04:01:23;23.26;45.15
67555;HTU21D;54385;53.516;49.456;2023-06-26T04:03:50;23.27;45.01
67555;HTU21D;54385;53.516;49.456;2023-06-26T04:06:16;23.31;45.16
67555;HTU21D;54385;53.516;49.456;2023-06-26T04:08:44;23.35;45.22
67555;HTU21D;54385;53.516;49.456;2023-06-26T04:11:17;23.42;45.10
67555;HTU21D;54385;53.516;49.456;2023-06-26T04:13:47;23.47;44.99
67555;HTU21D;54385;53.516;49.456;2023-06-26T04:16:15;23.53;44.82
67555;HTU21D;54385;53.516;49.456;2023-06-26T04:18:48;23.55;44.77
67555;HTU21D;54385;53.516;49.456;2023-06-26T04:21:18;23.60;44.61
67555;HTU21D;54385;53.516;49.456;2023-06-26T04:23:45;23.67;44.42
67555;HTU21D;54385;53.516;49.456;2023-06-26T04:26:17;23.72;44.58
67555;HTU21D;54385;53.516;49.456;2023-06-26T04:28:54;23.76;44.44
67555;HTU21D;54385;53.516;49.456;2023-06-26T04:31:20;23.83;44.12
67555;HTU21D;54385;53.516;49.456;2023-06-26T04:33:48;23.89;43.98
67555;HTU21D;54385;53.516;49.456;2023-06-26T04:36:25;23.95;43.97
67555;HTU21D;54385;53.516;49.456;2023-06-26T04:39:08;23.99;43.77
67555;HTU21D;54385;53.516;49.456;2023-06-26T04:41:35;24.02;43.52
67555;HTU21D;54385;53.516;49.456;2023-06-26T04:44:05;24.06;43.03
67555;HTU21D;54385;53.516;49.456;2023-06-26T04:46:32;24.11;42.85
67555;HTU21D;54385;53.516;49.456;2023-06-26T04:49:02;24.15;42.61
67555;HTU21D;54385;53.516;49.456;2023-06-26T04:51:36;24.19;42.46
67555;HTU21D;54385;53.516;49.456;2023-06-26T04:54:26;24.21;42.26
67555;HTU21D;54385;53.516;49.456;2023-06-26T04:57:10;24.25;42.19
67555;HTU21D;54385;53.516;49.456;2023-06-26T04:59:50;24.29;42.09
67555;HTU21D;54385;53.516;49.456;2023-06-26T05:02:25;24.32;41.99
67555;HTU21D;54385;53.516;49.456;2023-06-26T05:04:55;24.35;42.07
67555;HTU21D;54385;53.516;49.456;2023-06-26T05:07:48;24.39;42.03
67555;HTU21D;54385;53.516;49.456;2023-06-26T05:10:32;24.42;41.85
67555;HTU21D;54385;53.516;49.456;2023-06-26T05:13:00;24.47;41.77
67555;HTU21D;54385;53.516;49.456;2023-06-26T05:15:26;24.51;41.52
67555;HTU21D;54385;53.516;49.456;2023-06-26T05:17:54;24.58;41.20
67555;HTU21D;54385;53.516;49.456;2023-06-26T05:20:21;24.64;41.00
67555;HTU21D;54385;53.516;49.456;2023-06-26T05:22:52;24.69;40.72
67555;HTU21D;54385;53.516;49.456;2023-06-26T05:25:19;24.75;40.55
67555;HTU21D;54385;53.516;49.456;2023-06-26T05:27:50;24.80;40.35
67555;HTU21D;54385;53.516;49.456;2023-06-26T05:30:25;24.85;40.09
67555;HTU21D;54385;53.516;49.456;2023-06-26T05:32:56;24.89;39.98
67555;HTU21D;54385;53.516;49.456;2023-06-26T05:35:36;24.90;39.83
67555;HTU21D;54385;53.516;49.456;2023-06-26T05:38:04;24.97;39.63
67555;HTU21D;54385;53.516;49.456;2023-06-26T05:40:31;25.01;39.47
67555;HTU21D;54385;53.516;49.456;2023-06-26T05:42:59;25.04;39.30
67555;HTU21D;54385;53.516;49.456;2023-06-26T05:45:26;25.07;39.16
67555;HTU21D;54385;53.516;49.456;2023-06-26T05:47:54;25.15;38.98
67555;HTU21D;54385;53.516;49.456;2023-06-26T05:50:25;25.20;38.84
67555;HTU21D;54385;53.516;49.456;2023-06-26T05:52:56;25.25;38.61
67555;HTU21D;54385;53.516;49.456;2023-06-26T05:55:29;25.37;38.27
67555;HTU21D;54385;53.516;49.456;2023-06-26T05:57:58;25.47;38.06
67555;HTU21D;54385;53.516;49.456;2023-06-26T06:00:27;25.53;37.87
67555;HTU21D;54385;53.516;49.456;2023-06-26T06:02:54;25.50;37.81
67555;HTU21D;54385;53.516;49.456;2023-06-26T06:05:22;25.49;37.82
67555;HTU21D;54385;53.516;49.456;2023-06-26T06:07:50;25.56;37.69
67555;HTU21D;54385;53.516;49.456;2023-06-26T06:10:17;25.66;37.43
67555;HTU21D;54385;53.516;49.456;2023-06-26T06:12:44;25.71;37.27
67555;HTU21D;54385;53.516;49.456;2023-06-26T06:15:13;25.73;37.23
67555;HTU21D;54385;53.516;49.456;2023-06-26T06:17:43;25.88;36.89
67555;HTU21D;54385;53.516;49.456;2023-06-26T06:20:12;26.10;36.44
67555;HTU21D;54385;53.516;49.456;2023-06-26T06:22:39;26.23;36.14
67555;HTU21D;54385;53.516;49.456;2023-06-26T06:25:06;26.32;35.91
67555;HTU21D;54385;53.516;49.456;2023-06-26T06:27:33;26.34;35.80
67555;HTU21D;54385;53.516;49.456;2023-06-26T06:30:00;26.40;35.66
67555;HTU21D;54385;53.516;49.456;2023-06-26T06:32:27;26.42;35.63
67555;HTU21D;54385;53.516;49.456;2023-06-26T06:34:55;26.46;35.49
67555;HTU21D;54385;53.516;49.456;2023-06-26T06:37:32;26.48;35.39
67555;HTU21D;54385;53.516;49.456;2023-06-26T06:40:00;26.51;35.40
67555;HTU21D;54385;53.516;49.456;2023-06-26T06:42:30;26.66;35.03
67555;HTU21D;54385;53.516;49.456;2023-06-26T06:45:03;26.76;34.88
67555;HTU21D;54385;53.516;49.456;2023-06-26T06:47:32;26.92;34.56
67555;HTU21D;54385;53.516;49.456;2023-06-26T06:50:00;27.02;34.29
67555;HTU21D;54385;53.516;49.456;2023-06-26T06:52:39;27.09;34.05
67555;HTU21D;54385;53.516;49.456;2023-06-26T06:55:07;27.11;34.10
67555;HTU21D;54385;53.516;49.456;2023-06-26T06:57:39;27.14;34.02
67555;HTU21D;54385;53.516;49.456;2023-06-26T07:00:11;27.14;33.83
67555;HTU21D;54385;53.516;49.456;2023-06-26T07:02:45;27.20;33.63
67555;HTU21D;54385;53.516;49.456;2023-06-26T07:05:12;27.25;33.46
67555;HTU21D;54385;53.516;49.456;2023-06-26T07:07:43;27.34;33.40
67555;HTU21D;54385;53.516;49.456;2023-06-26T07:10:13;27.38;33.25
67555;HTU21D;54385;53.516;49.456;2023-06-26T07:12:40;27.37;33.33
67555;HTU21D;54385;53.516;49.456;2023-06-26T07:15:08;27.37;33.31
67555;HTU21D;54385;53.516;49.456;2023-06-26T07:17:36;27.30;33.63
67555;HTU21D;54385;53.516;49.456;2023-06-26T07:20:20;27.45;33.55
67555;HTU21D;54385;53.516;49.456;2023-06-26T07:22:51;27.61;33.34
67555;HTU21D;54385;53.516;49.456;2023-06-26T07:25:19;27.82;32.83
67555;HTU21D;54385;53.516;49.456;2023-06-26T07:27:49;28.02;32.35
67555;HTU21D;54385;53.516;49.456;2023-06-26T07:30:28;28.00;32.17
67555;HTU21D;54385;53.516;49.456;2023-06-26T07:33:08;27.84;32.27
67555;HTU21D;54385;53.516;49.456;2023-06-26T07:35:40;27.80;32.26
67555;HTU21D;54385;53.516;49.456;2023-06-26T07:38:30;27.78;32.21
67555;HTU21D;54385;53.516;49.456;2023-06-26T07:41:49;27.83;31.77
67555;HTU21D;54385;53.516;49.456;2023-06-26T07:44:33;27.89;31.66
67555;HTU21D;54385;53.516;49.456;2023-06-26T07:47:06;27.94;31.45
67555;HTU21D;54385;53.516;49.456;2023-06-26T07:49:33;27.88;31.25
67555;HTU21D;54385;53.516;49.456;2023-06-26T07:52:06;27.87;30.90
67555;HTU21D;54385;53.516;49.456;2023-06-26T07:58:08;28.35;29.72
67555;HTU21D;54385;53.516;49.456;2023-06-26T08:00:41;28.61;29.07
67555;HTU21D;54385;53.516;49.456;2023-06-26T08:03:36;28.87;28.00
67555;HTU21D;54385;53.516;49.456;2023-06-26T08:10:07;29.01;27.42
67555;HTU21D;54385;53.516;49.456;2023-06-26T08:22:34;28.63;28.23
67555;HTU21D;54385;53.516;49.456;2023-06-26T08:25:40;28.70;28.03
67555;HTU21D;54385;53.516;49.456;2023-06-26T08:28:55;28.53;28.41
67555;HTU21D;54385;53.516;49.456;2023-06-26T08:32:03;28.32;28.67
67555;HTU21D;54385;53.516;49.456;2023-06-26T08:35:15;28.27;28.77
67555;HTU21D;54385;53.516;49.456;2023-06-26T08:37:47;28.33;28.99
67555;HTU21D;54385;53.516;49.456;2023-06-26T08:40:17;28.52;28.78
67555;HTU21D;54385;53.516;49.456;2023-06-26T08:43:19;28.69;28.44
67555;HTU21D;54385;53.516;49.456;2023-06-26T08:46:52;28.56;28.77
67555;HTU21D;54385;53.516;49.456;2023-06-26T08:49:28;28.42;28.97
67555;HTU21D;54385;53.516;49.456;2023-06-26T08:52:38;28.31;29.32
67555;HTU21D;54385;53.516;49.456;2023-06-26T08:55:35;28.39;29.05
67555;HTU21D;54385;53.516;49.456;2023-06-26T08:58:18;28.50;28.85
67555;HTU21D;54385;53.516;49.456;2023-06-26T09:00:57;28.71;28.71
67555;HTU21D;54385;53.516;49.456;2023-06-26T09:03:52;28.83;28.47
67555;HTU21D;54385;53.516;49.456;2023-06-26T09:06:19;29.08;28.05
67555;HTU21D;54385;53.516;49.456;2023-06-26T09:09:09;29.42;27.36
67555;HTU21D;54385;53.516;49.456;2023-06-26T09:11:58;29.54;27.45
67555;HTU21D;54385;53.516;49.456;2023-06-26T09:14:49;29.58;27.29
67555;HTU21D;54385;53.516;49.456;2023-06-26T09:17:29;29.59;27.02
67555;HTU21D;54385;53.516;49.456;2023-06-26T09:20:03;29.59;27.26
67555;HTU21D;54385;53.516;49.456;2023-06-26T09:25:42;29.66;27.21
67555;HTU21D;54385;53.516;49.456;2023-06-26T09:28:13;29.87;26.89
67555;HTU21D;54385;53.516;49.456;2023-06-26T09:30:47;30.12;26.54
67555;HTU21D;54385;53.516;49.456;2023-06-26T09:39:45;30.00;26.97
67555;HTU21D;54385;53.516;49.456;2023-06-26T09:42:34;29.94;26.94
67555;HTU21D;54385;53.516;49.456;2023-06-26T09:45:02;29.95;26.83
67555;HTU21D;54385;53.516;49.456;2023-06-26T09:47:48;30.06;26.69
67555;HTU21D;54385;53.516;49.456;2023-06-26T09:50:47;30.26;26.54
67555;HTU21D;54385;53.516;49.456;2023-06-26T09:53:15;30.52;26.14
67555;HTU21D;54385;53.516;49.456;2023-06-26T09:55:51;30.70;25.78
67555;HTU21D;54385;53.516;49.456;2023-06-26T09:58:36;30.87;25.51
67555;HTU21D;54385;53.516;49.456;2023-06-26T10:01:09;30.97;25.29
67555;HTU21D;54385;53.516;49.456;2023-06-26T10:03:50;31.01;25.24
67555;HTU21D;54385;53.516;49.456;2023-06-26T10:06:22;30.99;25.16
67555;HTU21D;54385;53.516;49.456;2023-06-26T10:09:44;31.07;25.16
67555;HTU21D;54385;53.516;49.456;2023-06-26T10:12:21;31.10;25.10
67555;HTU21D;54385;53.516;49.456;2023-06-26T10:15:03;30.99;25.19
67555;HTU21D;54385;53.516;49.456;2023-06-26T10:17:36;30.96;25.25
67555;HTU21D;54385;53.516;49.456;2023-06-26T10:23:25;31.42;24.67
67555;HTU21D;54385;53.516;49.456;2023-06-26T10:25:55;31.49;24.65
67555;HTU21D;54385;53.516;49.456;2023-06-26T10:28:27;31.53;24.60
67555;HTU21D;54385;53.516;49.456;2023-06-26T10:30:55;31.56;24.60
67555;HTU21D;54385;53.516;49.456;2023-06-26T10:33:25;31.72;24.40
67555;HTU21D;54385;53.516;49.456;2023-06-26T10:36:19;32.00;25.05
67555;HTU21D;54385;53.516;49.456;2023-06-26T10:38:54;32.15;24.24
67555;HTU21D;54385;53.516;49.456;2023-06-26T10:41:22;32.38;25.22
67555;HTU21D;54385;53.516;49.456;2023-06-26T10:43:51;32.68;25.38
67555;HTU21D;54385;53.516;49.456;2023-06-26T10:46:23;33.18;24.89
67555;HTU21D;54385;53.516;49.456;2023-06-26T10:49:00;33.46;24.56
67555;HTU21D;54385;53.516;49.456;2023-06-26T10:51:31;33.38;24.62
67555;HTU21D;54385;53.516;49.456;2023-06-26T10:54:16;33.47;24.56
67555;HTU21D;54385;53.516;49.456;2023-06-26T10:56:48;33.75;24.09
67555;HTU21D;54385;53.516;49.456;2023-06-26T10:59:20;34.04;23.46
67555;HTU21D;54385;53.516;49.456;2023-06-26T11:01:55;34.04;23.32
67555;HTU21D;54385;53.516;49.456;2023-06-26T11:04:55;33.75;23.53
67555;HTU21D;54385;53.516;49.456;2023-06-26T11:07:29;33.41;24.07
67555;HTU21D;54385;53.516;49.456;2023-06-26T11:12:41;32.89;24.29
67555;HTU21D;54385;53.516;49.456;2023-06-26T11:15:15;33.26;23.82
67555;HTU21D;54385;53.516;49.456;2023-06-26T11:17:43;33.83;23.31
67555;HTU21D;54385;53.516;49.456;2023-06-26T11:20:12;34.01;22.99
67555;HTU21D;54385;53.516;49.456;2023-06-26T11:22:40;33.99;22.98
67555;HTU21D;54385;53.516;49.456;2023-06-26T11:25:25;34.08;22.76
67555;HTU21D;54385;53.516;49.456;2023-06-26T11:27:53;34.51;22.18
67555;HTU21D;54385;53.516;49.456;2023-06-26T11:30:24;35.05;21.25
67555;HTU21D;54385;53.516;49.456;2023-06-26T11:33:05;35.71;20.22
67555;HTU21D;54385;53.516;49.456;2023-06-26T11:35:33;36.34;19.95
67555;HTU21D;54385;53.516;49.456;2023-06-26T11:38:08;37.01;19.13
67555;HTU21D;54385;53.516;49.456;2023-06-26T11:40:36;37.69;18.28
67555;HTU21D;54385;53.516;49.456;2023-06-26T11:43:03;38.17;17.67
67555;HTU21D;54385;53.516;49.456;2023-06-26T11:45:33;37.85;17.92
67555;HTU21D;54385;53.516;49.456;2023-06-26T11:48:00;37.27;18.35
67555;HTU21D;54385;53.516;49.456;2023-06-26T11:50:31;37.41;18.03
67555;HTU21D;54385;53.516;49.456;2023-06-26T11:53:00;37.79;17.55
67555;HTU21D;54385;53.516;49.456;2023-06-26T11:58:18;38.92;16.67
67555;HTU21D;54385;53.516;49.456;2023-06-26T12:00:56;39.45;15.67
67555;HTU21D;54385;53.516;49.456;2023-06-26T12:03:26;39.99;15.50
67555;HTU21D;54385;53.516;49.456;2023-06-26T12:05:53;40.53;14.96
67555;HTU21D;54385;53.516;49.456;2023-06-26T12:08:23;41.07;14.39
67555;HTU21D;54385;53.516;49.456;2023-06-26T12:11:18;41.17;14.26
67555;HTU21D;54385;53.516;49.456;2023-06-26T12:13:47;40.48;14.65
67555;HTU21D;54385;53.516;49.456;2023-06-26T12:16:17;40.39;14.80
67555;HTU21D;54385;53.516;49.456;2023-06-26T12:18:50;40.83;14.05
67555;HTU21D;54385;53.516;49.456;2023-06-26T12:24:29;41.75;13.52
67555;HTU21D;54385;53.516;49.456;2023-06-26T12:26:56;40.96;14.10
67555;HTU21D;54385;53.516;49.456;2023-06-26T12:29:40;40.17;14.61
67555;HTU21D;54385;53.516;49.456;2023-06-26T12:32:10;40.68;14.00
67555;HTU21D;54385;53.516;49.456;2023-06-26T12:34:38;41.51;13.44
67555;HTU21D;54385;53.516;49.456;2023-06-26T12:37:11;42.38;12.43
67555;HTU21D;54385;53.516;49.456;2023-06-26T12:39:53;42.37;12.30
67555;HTU21D;54385;53.516;49.456;2023-06-26T12:44:51;43.79;11.46
67555;HTU21D;54385;53.516;49.456;2023-06-26T12:47:24;44.51;10.47
67555;HTU21D;54385;53.516;49.456;2023-06-26T12:49:54;45.03;10.39
67555;HTU21D;54385;53.516;49.456;2023-06-26T12:52:31;44.32;10.98
67555;HTU21D;54385;53.516;49.456;2023-06-26T12:55:01;44.75;10.58
67555;HTU21D;54385;53.516;49.456;2023-06-26T12:57:42;45.57;9.99
67555;HTU21D;54385;53.516;49.456;2023-06-26T13:00:09;46.35;9.34
67555;HTU21D;54385;53.516;49.456;2023-06-26T13:02:36;47.06;8.85
67555;HTU21D;54385;53.516;49.456;2023-06-26T13:05:07;47.65;8.43
67555;HTU21D;54385;53.516;49.456;2023-06-26T13:07:47;48.22;7.98
67555;HTU21D;54385;53.516;49.456;2023-06-26T13:10:14;48.79;7.57
67555;HTU21D;54385;53.516;49.456;2023-06-26T13:12:41;49.25;7.25
67555;HTU21D;54385;53.516;49.456;2023-06-26T13:15:08;49.64;6.97
67555;HTU21D;54385;53.516;49.456;2023-06-26T13:17:38;50.04;6.73
67555;HTU21D;54385;53.516;49.456;2023-06-26T13:20:05;50.31;6.50
67555;HTU21D;54385;53.516;49.456;2023-06-26T13:22:33;50.57;6.34
67555;HTU21D;54385;53.516;49.456;2023-06-26T13:24:59;50.76;6.25
67555;HTU21D;54385;53.516;49.456;2023-06-26T13:27:32;50.98;5.63
67555;HTU21D;54385;53.516;49.456;2023-06-26T13:29:59;51.16;5.81
67555;HTU21D;54385;53.516;49.456;2023-06-26T13:32:48;51.26;5.80
67555;HTU21D;54385;53.516;49.456;2023-06-26T13:35:22;51.40;5.45
67555;HTU21D;54385;53.516;49.456;2023-06-26T13:37:49;51.45;5.67
67555;HTU21D;54385;53.516;49.456;2023-06-26T13:40:16;51.48;5.63
67555;HTU21D;54385;53.516;49.456;2023-06-26T13:42:51;51.56;5.59
67555;HTU21D;54385;53.516;49.456;2023-06-26T13:45:18;51.63;5.54
67555;HTU21D;54385;53.516;49.456;2023-06-26T13:47:44;51.63;5.51
67555;HTU21D;54385;53.516;49.456;2023-06-26T13:50:11;51.57;5.56
67555;HTU21D;54385;53.516;49.456;2023-06-26T13:52:50;51.68;5.20
67555;HTU21D;54385;53.516;49.456;2023-06-26T13:55:20;51.82;5.40
67555;HTU21D;54385;53.516;49.456;2023-06-26T13:57:54;52.04;5.30
67555;HTU21D;54385;53.516;49.456;2023-06-26T14:00:27;52.15;4.89
67555;HTU21D;54385;53.516;49.456;2023-06-26T14:02:54;51.52;5.51
67555;HTU21D;54385;53.516;49.456;2023-06-26T14:05:33;50.29;6.01
67555;HTU21D;54385;53.516;49.456;2023-06-26T14:08:02;48.62;7.06
67555;HTU21D;54385;53.516;49.456;2023-06-26T14:10:29;47.04;8.34
67555;HTU21D;54385;53.516;49.456;2023-06-26T14:13:00;45.81;9.20
67555;HTU21D;54385;53.516;49.456;2023-06-26T14:15:33;44.54;10.20
67555;HTU21D;54385;53.516;49.456;2023-06-26T14:17:59;43.38;11.19
67555;HTU21D;54385;53.516;49.456;2023-06-26T14:20:29;42.30;12.15
67555;HTU21D;54385;53.516;49.456;2023-06-26T14:22:59;41.30;13.08
67555;HTU21D;54385;53.516;49.456;2023-06-26T14:25:26;40.21;14.09
67555;HTU21D;54385;53.516;49.456;2023-06-26T14:27:55;39.08;15.29
67555;HTU21D;54385;53.516;49.456;2023-06-26T14:30:22;38.33;16.01
67555;HTU21D;54385;53.516;49.456;2023-06-26T14:32:51;37.73;16.58
67555;HTU21D;54385;53.516;49.456;2023-06-26T14:35:18;36.93;17.35
67555;HTU21D;54385;53.516;49.456;2023-06-26T14:37:45;36.33;18.03
67555;HTU21D;54385;53.516;49.456;2023-06-26T14:40:12;35.80;18.63
67555;HTU21D;54385;53.516;49.456;2023-06-26T14:42:39;35.40;19.15
67555;HTU21D;54385;53.516;49.456;2023-06-26T14:45:07;35.62;18.90
67555;HTU21D;54385;53.516;49.456;2023-06-26T14:47:34;35.40;19.10
67555;HTU21D;54385;53.516;49.456;2023-06-26T14:50:01;35.01;19.51
67555;HTU21D;54385;53.516;49.456;2023-06-26T14:52:28;34.49;20.16
67555;HTU21D;54385;53.516;49.456;2023-06-26T14:54:55;34.01;20.73
67555;HTU21D;54385;53.516;49.456;2023-06-26T14:57:21;33.60;21.21
67555;HTU21D;54385;53.516;49.456;2023-06-26T14:59:48;33.32;21.52
67555;HTU21D;54385;53.516;49.456;2023-06-26T15:02:15;33.15;21.76
67555;HTU21D;54385;53.516;49.456;2023-06-26T15:04:42;32.89;22.02
67555;HTU21D;54385;53.516;49.456;2023-06-26T15:07:09;32.69;22.31
67555;HTU21D;54385;53.516;49.456;2023-06-26T15:09:46;32.44;22.58
67555;HTU21D;54385;53.516;49.456;2023-06-26T15:12:13;32.22;22.82
67555;HTU21D;54385;53.516;49.456;2023-06-26T15:14:40;32.01;23.08
67555;HTU21D;54385;53.516;49.456;2023-06-26T15:17:07;31.87;23.24
67555;HTU21D;54385;53.516;49.456;2023-06-26T15:19:34;31.69;23.47
67555;HTU21D;54385;53.516;49.456;2023-06-26T15:22:02;31.51;23.72
67555;HTU21D;54385;53.516;49.456;2023-06-26T15:24:29;31.40;23.83
67555;HTU21D;54385;53.516;49.456;2023-06-26T15:26:59;31.41;23.82
67555;HTU21D;54385;53.516;49.456;2023-06-26T15:29:25;31.54;23.66
67555;HTU21D;54385;53.516;49.456;2023-06-26T15:31:55;31.99;23.10
67555;HTU21D;54385;53.516;49.456;2023-06-26T15:34:25;32.54;22.20
67555;HTU21D;54385;53.516;49.456;2023-06-26T15:36:54;32.44;22.24
67555;HTU21D;54385;53.516;49.456;2023-06-26T15:39:21;32.28;22.42
67555;HTU21D;54385;53.516;49.456;2023-06-26T15:41:47;32.11;22.66
67555;HTU21D;54385;53.516;49.456;2023-06-26T15:44:14;31.89;22.94
67555;HTU21D;54385;53.516;49.456;2023-06-26T15:46:41;31.86;22.98
67555;HTU21D;54385;53.516;49.456;2023-06-26T15:49:08;32.30;22.37
67555;HTU21D;54385;53.516;49.456;2023-06-26T15:51:35;32.43;22.19
67555;HTU21D;54385;53.516;49.456;2023-06-26T15:54:05;32.35;22.23
67555;HTU21D;54385;53.516;49.456;2023-06-26T15:56:32;32.22;22.41
67555;HTU21D;54385;53.516;49.456;2023-06-26T15:59:05;31.94;22.75
67555;HTU21D;54385;53.516;49.456;2023-06-26T16:01:32;31.73;22.99
67555;HTU21D;54385;53.516;49.456;2023-06-26T16:03:59;31.66;23.11
67555;HTU21D;54385;53.516;49.456;2023-06-26T16:06:35;31.73;22.99
67555;HTU21D;54385;53.516;49.456;2023-06-26T16:09:02;31.70;23.05
67555;HTU21D;54385;53.516;49.456;2023-06-26T16:11:29;31.73;23.08
67555;HTU21D;54385;53.516;49.456;2023-06-26T16:13:56;32.04;22.72
67555;HTU21D;54385;53.516;49.456;2023-06-26T16:16:24;32.93;21.57
67555;HTU21D;54385;53.516;49.456;2023-06-26T16:18:51;33.90;20.28
67555;HTU21D;54385;53.516;49.456;2023-06-26T16:21:18;34.62;19.38
67555;HTU21D;54385;53.516;49.456;2023-06-26T16:23:45;35.15;18.68